Terminal Aerodrome Forecast
Issued by NWS Wilmington, OH

Current Version | Previous Version | Graphics & Text | Print | Product List | Glossary On
Versions: 1 2 3 4 5 6 7 8 9 10 11 12 13 14 15 16 17 18 19 20 21 22 23
208
FTUS41 KILN 290952 AAA
TAFDAY
TAF AMD
KDAY 290952Z 2910/3006 34005KT 1/2SM FG OVC002
     FM291200 33005KT 3SM BR OVC006
     FM291500 33006KT P6SM OVC015
     FM291800 33008KT P6SM BKN035
     FM292300 03006KT P6SM SCT045=

USA.gov is the U.S. government's official web portal to all federal, state and local government web resources and services.